createdAt,value
2019-03-17T00:01:22.178Z,9.40
2019-03-17T00:05:27.195Z,9.40
2019-03-17T00:09:32.180Z,9.40
2019-03-17T00:13:37.155Z,9.50
2019-03-17T00:17:42.161Z,9.40
2019-03-17T00:21:47.077Z,9.50
2019-03-17T00:25:52.056Z,9.50
2019-03-17T00:29:57.001Z,9.50
2019-03-17T00:34:01.978Z,9.40
2019-03-17T00:38:06.945Z,9.50
2019-03-17T00:42:11.904Z,9.50
2019-03-17T00:46:16.858Z,9.50
2019-03-17T00:50:21.824Z,9.50
2019-03-17T00:54:26.775Z,9.50
2019-03-17T00:58:31.756Z,9.50
2019-03-17T01:02:37.700Z,9.50
2019-03-17T01:06:42.659Z,9.50
2019-03-17T01:10:48.607Z,9.40
2019-03-17T01:14:53.556Z,9.50
2019-03-17T01:18:58.539Z,9.50
2019-03-17T01:23:03.488Z,9.50
2019-03-17T01:27:08.561Z,9.50
2019-03-17T01:31:13.570Z,9.50
2019-03-17T01:35:18.509Z,9.60
2019-03-17T01:39:23.485Z,9.60
2019-03-17T01:43:28.448Z,9.50
2019-03-17T01:47:33.426Z,9.50
2019-03-17T01:51:38.504Z,9.60
2019-03-17T01:55:43.430Z,9.50
2019-03-17T01:59:48.399Z,9.60
2019-03-17T02:03:53.354Z,9.60
2019-03-17T02:07:58.386Z,9.60
2019-03-17T02:12:03.335Z,9.60
2019-03-17T02:16:08.304Z,9.60
2019-03-17T02:20:13.338Z,9.60
2019-03-17T02:24:18.347Z,9.60
2019-03-17T02:28:23.305Z,9.50
2019-03-17T02:32:28.276Z,9.50
2019-03-17T02:36:33.228Z,9.50
2019-03-17T02:40:38.199Z,9.50
2019-03-17T02:44:43.264Z,9.50
2019-03-17T02:48:48.160Z,9.50
2019-03-17T02:52:53.155Z,9.60
2019-03-17T02:56:58.085Z,9.60
2019-03-17T03:01:03.345Z,9.50
2019-03-17T03:05:09.031Z,9.60
2019-03-17T03:09:14.008Z,9.60
2019-03-17T03:13:18.980Z,9.50
2019-03-17T03:17:23.948Z,9.60
2019-03-17T03:21:28.939Z,9.50
2019-03-17T03:25:33.888Z,9.60
2019-03-17T03:29:38.853Z,9.50
2019-03-17T03:33:43.846Z,9.50
2019-03-17T03:37:48.790Z,9.50
2019-03-17T03:41:53.801Z,9.60
2019-03-17T03:45:58.750Z,9.60
2019-03-17T03:50:05.024Z,9.50
2019-03-17T03:54:09.971Z,9.60
2019-03-17T03:58:14.982Z,9.60
2019-03-17T04:02:19.923Z,9.60
2019-03-17T04:06:26.718Z,9.60
2019-03-17T04:10:31.486Z,9.60
2019-03-17T04:14:36.457Z,9.60
2019-03-17T04:18:41.466Z,9.60
2019-03-17T04:22:46.423Z,9.50
2019-03-17T04:26:52.472Z,9.50
2019-03-17T04:30:57.476Z,9.50
2019-03-17T04:35:02.631Z,9.50
2019-03-17T04:39:08.676Z,9.50
2019-03-17T04:43:13.631Z,9.50
2019-03-17T04:47:18.603Z,9.50
2019-03-17T04:51:23.546Z,9.50
2019-03-17T04:55:28.507Z,9.50
2019-03-17T04:59:33.512Z,9.50
2019-03-17T05:03:38.454Z,9.50
2019-03-17T05:07:43.684Z,9.50
2019-03-17T05:11:48.626Z,9.50
2019-03-17T05:15:53.646Z,9.40
2019-03-17T05:19:58.597Z,9.40
2019-03-17T05:24:03.603Z,9.50
2019-03-17T05:28:08.568Z,9.40
2019-03-17T05:32:13.581Z,9.50
2019-03-17T05:36:18.535Z,9.50
2019-03-17T05:40:23.508Z,9.40
2019-03-17T05:44:28.487Z,9.50
2019-03-17T05:48:33.542Z,9.50
2019-03-17T05:52:38.512Z,9.50
2019-03-17T05:56:43.506Z,9.50
2019-03-17T06:00:48.463Z,9.50
2019-03-17T06:04:53.465Z,9.60
2019-03-17T06:08:58.414Z,9.70
2019-03-17T06:13:03.387Z,9.70
2019-03-17T06:17:08.375Z,9.70
2019-03-17T06:21:13.329Z,9.70
2019-03-17T06:25:18.449Z,9.80
2019-03-17T06:29:23.361Z,9.90
2019-03-17T06:33:28.416Z,9.90
2019-03-17T06:37:33.366Z,10.00
2019-03-17T06:41:38.379Z,10.00
2019-03-17T06:45:43.328Z,10.00
2019-03-17T06:49:48.320Z,10.00
2019-03-17T06:53:56.647Z,10.10
2019-03-17T06:57:59.902Z,10.00
2019-03-17T07:02:04.887Z,10.00
2019-03-17T07:06:09.895Z,10.10
2019-03-17T07:10:22.424Z,10.00
2019-03-17T07:14:27.481Z,10.50
2019-03-17T07:18:32.432Z,10.40
2019-03-17T07:22:37.400Z,10.30
2019-03-17T07:26:42.394Z,10.20
2019-03-17T07:30:47.328Z,10.20
2019-03-17T07:34:52.308Z,10.20
2019-03-17T07:38:57.261Z,10.20
2019-03-17T07:43:03.204Z,10.20
2019-03-17T07:47:08.187Z,10.30
2019-03-17T07:51:13.143Z,10.40
2019-03-17T07:55:18.129Z,10.50
2019-03-17T07:59:23.082Z,10.60
2019-03-17T08:03:28.083Z,10.70
2019-03-17T08:07:33.052Z,10.80
2019-03-17T08:11:38.096Z,10.80
2019-03-17T08:15:43.178Z,10.90
2019-03-17T08:19:48.146Z,11.00
2019-03-17T08:23:53.134Z,11.30
2019-03-17T08:27:58.432Z,11.60
2019-03-17T08:32:05.213Z,12.10
2019-03-17T08:36:10.763Z,12.50
2019-03-17T08:40:17.527Z,12.70
2019-03-17T08:44:23.103Z,12.60
2019-03-17T08:48:28.304Z,12.80
2019-03-17T08:52:34.430Z,12.70
2019-03-17T08:56:39.686Z,13.10
2019-03-17T09:00:44.916Z,13.20
2019-03-17T09:04:50.092Z,13.00
2019-03-17T09:08:55.636Z,13.00
2019-03-17T09:13:04.052Z,13.00
2019-03-17T09:17:14.224Z,12.90
2019-03-17T09:21:14.648Z,12.90
2019-03-17T09:25:19.616Z,12.90
2019-03-17T09:29:25.339Z,13.00
2019-03-17T09:33:30.688Z,13.50
2019-03-17T09:37:36.144Z,13.90
2019-03-17T09:41:41.186Z,14.20
2019-03-17T09:45:46.215Z,14.20
2019-03-17T09:49:51.241Z,14.60
2019-03-17T09:53:56.313Z,14.80
2019-03-17T09:58:01.460Z,14.90
2019-03-17T10:02:07.240Z,14.80
2019-03-17T10:06:12.528Z,14.50
2019-03-17T10:10:23.863Z,14.10
2019-03-17T10:14:29.432Z,13.90
2019-03-17T10:18:36.198Z,13.60
2019-03-17T10:22:41.568Z,13.40
2019-03-17T10:26:47.207Z,13.20
2019-03-17T10:30:52.761Z,13.10
2019-03-17T10:34:58.135Z,13.00
2019-03-17T10:39:12.365Z,12.80
2019-03-17T10:43:11.477Z,12.80
2019-03-17T10:47:17.030Z,12.80
2019-03-17T10:51:22.586Z,12.70
2019-03-17T10:55:28.047Z,12.80
2019-03-17T10:59:33.393Z,12.70
2019-03-17T11:03:38.945Z,12.70
2019-03-17T11:07:44.500Z,12.70
2019-03-17T11:11:50.157Z,12.80
2019-03-17T11:15:55.712Z,12.70
2019-03-17T11:20:01.381Z,12.70
2019-03-17T11:24:06.791Z,12.60
2019-03-17T11:28:13.027Z,12.60
2019-03-17T11:32:19.574Z,12.60
2019-03-17T11:36:25.250Z,12.80
2019-03-17T11:40:32.324Z,13.10
2019-03-17T11:44:37.876Z,13.30
2019-03-17T11:48:44.557Z,13.30
2019-03-17T11:52:50.569Z,13.40
2019-03-17T11:56:56.182Z,13.40
2019-03-17T12:01:02.496Z,13.40
2019-03-17T12:05:10.260Z,13.20
2019-03-17T12:09:28.165Z,13.10
2019-03-17T12:13:23.116Z,12.90
2019-03-17T12:17:28.770Z,12.70
2019-03-17T12:21:34.432Z,12.30
2019-03-17T12:25:40.092Z,11.80
2019-03-17T12:29:45.744Z,11.60
2019-03-17T12:33:53.039Z,11.50
2019-03-17T12:37:58.595Z,11.50
2019-03-17T12:42:04.352Z,11.70
2019-03-17T12:46:10.112Z,12.00
2019-03-17T12:50:17.604Z,12.10
2019-03-17T12:54:23.271Z,12.30
2019-03-17T12:58:28.981Z,12.20
2019-03-17T13:02:39.047Z,12.20
2019-03-17T13:06:44.958Z,11.70
2019-03-17T13:10:52.156Z,10.80
2019-03-17T13:14:57.810Z,10.20
2019-03-17T13:19:04.598Z,9.80
2019-03-17T13:23:10.559Z,9.60
2019-03-17T13:27:18.979Z,9.50
2019-03-17T13:31:24.689Z,9.20
2019-03-17T13:35:30.399Z,9.10
2019-03-17T13:39:37.531Z,9.10
2019-03-17T13:43:45.398Z,8.90
2019-03-17T13:47:54.259Z,8.70
2019-03-17T13:51:59.680Z,8.80
2019-03-17T13:56:07.080Z,8.70
2019-03-17T14:00:15.506Z,8.70
2019-03-17T14:04:23.040Z,8.70
2019-03-17T14:08:28.762Z,8.80
2019-03-17T14:12:34.524Z,8.80
2019-03-17T14:16:43.114Z,9.00
2019-03-17T14:20:50.148Z,8.90
2019-03-17T14:24:57.690Z,8.80
2019-03-17T14:29:04.015Z,8.70
2019-03-17T14:33:09.907Z,8.80
2019-03-17T14:37:16.251Z,8.80
2019-03-17T14:41:23.390Z,8.80
2019-03-17T14:45:30.168Z,8.80
2019-03-17T14:49:36.299Z,8.80
2019-03-17T14:53:44.663Z,8.80
2019-03-17T14:57:53.144Z,8.80
2019-03-17T15:02:05.664Z,8.80
2019-03-17T15:06:07.278Z,8.80
2019-03-17T15:10:20.511Z,8.80
2019-03-17T15:14:26.319Z,8.80
2019-03-17T15:18:32.078Z,8.60
2019-03-17T15:22:39.170Z,8.60
2019-03-17T15:26:46.367Z,8.60
2019-03-17T15:31:09.911Z,8.70
2019-03-17T15:34:59.625Z,8.90
2019-03-17T15:39:07.501Z,9.20
2019-03-17T15:43:13.124Z,9.40
2019-03-17T15:47:18.850Z,9.30
2019-03-17T15:51:28.299Z,9.20
2019-03-17T15:55:34.160Z,9.10
2019-03-17T15:59:39.921Z,9.20
2019-03-17T16:03:46.555Z,9.10
2019-03-17T16:07:52.930Z,9.10
2019-03-17T16:12:00.785Z,9.20
2019-03-17T16:16:06.444Z,9.10
2019-03-17T16:20:15.127Z,9.10
2019-03-17T16:24:22.507Z,9.10
2019-03-17T16:28:30.788Z,9.10
2019-03-17T16:32:39.517Z,9.10
2019-03-17T16:36:46.660Z,9.00
2019-03-17T16:40:52.469Z,8.90
2019-03-17T16:44:58.230Z,8.90
2019-03-17T16:49:03.889Z,8.90
2019-03-17T16:53:10.726Z,8.90
2019-03-17T16:57:17.867Z,9.00
2019-03-17T17:01:23.526Z,8.90
2019-03-17T17:05:29.488Z,8.70
2019-03-17T17:09:37.808Z,8.80
2019-03-17T17:13:44.799Z,8.70
2019-03-17T17:17:52.040Z,8.80
2019-03-17T17:21:58.922Z,8.70
2019-03-17T17:26:07.271Z,8.60
2019-03-17T17:30:20.989Z,8.60
2019-03-17T17:34:27.470Z,8.60
2019-03-17T17:38:34.002Z,8.50
2019-03-17T17:42:41.983Z,8.40
2019-03-17T17:46:48.695Z,8.40
2019-03-17T17:50:57.532Z,8.40
2019-03-17T17:55:03.391Z,8.30
2019-03-17T17:59:09.664Z,8.30
2019-03-17T18:03:15.423Z,8.30
2019-03-17T18:07:21.285Z,8.10
2019-03-17T18:11:28.748Z,8.00
2019-03-17T18:15:35.575Z,8.00
2019-03-17T18:19:42.811Z,8.00
2019-03-17T18:23:51.555Z,7.90
2019-03-17T18:28:00.383Z,7.90
2019-03-17T18:32:06.391Z,7.90
2019-03-17T18:36:12.255Z,7.80
2019-03-17T18:40:21.188Z,7.80
2019-03-17T18:44:28.698Z,7.80
2019-03-17T18:48:34.449Z,7.50
2019-03-17T18:52:40.208Z,7.50
2019-03-17T18:56:48.372Z,7.60
2019-03-17T19:00:54.259Z,7.80
2019-03-17T19:04:59.947Z,7.60
2019-03-17T19:09:07.448Z,7.60
2019-03-17T19:13:14.542Z,7.60
2019-03-17T19:17:23.883Z,7.60
2019-03-17T19:21:29.542Z,7.40
2019-03-17T19:25:35.200Z,7.30
2019-03-17T19:29:40.877Z,7.10
2019-03-17T19:33:46.556Z,6.80
2019-03-17T19:37:52.376Z,6.80
2019-03-17T19:41:58.142Z,6.80
2019-03-17T19:46:03.947Z,6.70
2019-03-17T19:50:13.855Z,6.70
2019-03-17T19:54:19.511Z,6.70
2019-03-17T19:58:25.580Z,6.70
2019-03-17T20:02:31.237Z,6.50
2019-03-17T20:06:40.095Z,6.50
2019-03-17T20:10:45.669Z,6.50
2019-03-17T20:14:51.488Z,6.50
2019-03-17T20:18:57.351Z,6.40
2019-03-17T20:23:04.711Z,6.30
2019-03-17T20:27:10.910Z,6.30
2019-03-17T20:31:18.251Z,6.40
2019-03-17T20:35:23.985Z,6.30
2019-03-17T20:39:30.453Z,6.50
2019-03-17T20:43:38.529Z,6.40
2019-03-17T20:47:44.502Z,6.50
2019-03-17T20:51:51.213Z,6.40
2019-03-17T20:55:57.588Z,6.30
2019-03-17T21:00:09.089Z,6.40
2019-03-17T21:04:14.433Z,6.30
2019-03-17T21:08:21.623Z,6.20
2019-03-17T21:12:27.385Z,6.20
2019-03-17T21:16:34.174Z,6.20
2019-03-17T21:20:40.445Z,6.10
2019-03-17T21:24:47.634Z,6.10
2019-03-17T21:28:53.291Z,6.00
2019-03-17T21:32:58.883Z,6.10
2019-03-17T21:37:04.666Z,6.00
2019-03-17T21:41:11.496Z,6.00
2019-03-17T21:45:17.262Z,6.00
2019-03-17T21:49:22.912Z,5.80
2019-03-17T21:53:28.570Z,5.80
2019-03-17T21:57:34.126Z,5.90
2019-03-17T22:01:39.679Z,5.80
2019-03-17T22:05:45.338Z,5.80
2019-03-17T22:09:52.224Z,5.80
2019-03-17T22:13:57.781Z,5.80
2019-03-17T22:18:03.448Z,5.90
2019-03-17T22:22:09.131Z,6.00
2019-03-17T22:26:14.548Z,5.90
2019-03-17T22:30:20.580Z,5.90
2019-03-17T22:34:25.647Z,5.90
2019-03-17T22:38:30.714Z,5.90
2019-03-17T22:42:35.953Z,5.90
2019-03-17T22:46:40.991Z,5.90
2019-03-17T22:50:46.038Z,5.80
2019-03-17T22:54:50.942Z,5.80
2019-03-17T22:58:55.946Z,5.90
2019-03-17T23:03:00.896Z,5.80
2019-03-17T23:07:05.933Z,5.70
2019-03-17T23:11:10.904Z,5.60
2019-03-17T23:15:16.408Z,5.60
2019-03-17T23:19:21.559Z,5.60
2019-03-17T23:23:26.477Z,5.60
2019-03-17T23:27:31.552Z,5.70
2019-03-17T23:31:36.737Z,5.70
2019-03-17T23:35:41.725Z,5.70
2019-03-17T23:39:46.660Z,5.60
2019-03-17T23:43:51.640Z,5.60
2019-03-17T23:47:56.601Z,5.60
2019-03-17T23:52:01.585Z,5.60
2019-03-17T23:56:06.549Z,5.60
